INFORMACIÓN METAR y TAF
METAR FOR LIPE
ADDS - METARS form results

(0619 UTC 17 September 2019)
Data provider http://aviationweather.gov/metar/data/
 
METAR text: LIPE 170550Z 21004KT CAVOK 20/15 Q1015
Conditions at: LIPE (BOLOGNA/BORGO (A, IT) observed 0550 UTC 17 September 2019
Temperature: 20.0°C (68°F)
Dewpoint: 15.0°C (59°F) [RH = 73%]
Pressure (altimeter): 29.97 inches Hg (1015.0 mb)
Winds: from the SSW (210 degrees) at 5 MPH (4 knots; 2.1 m/s)
Visibility: 6 or more miles (10+ km)
Ceiling: ceiling and visibility are OK
Clouds: unknown
Weather: no significant weather observed at this time

METAR text: LIPE 170520Z 24003KT CAVOK 18/16 Q1015
Conditions at: LIPE (BOLOGNA/BORGO (A, IT) observed 0520 UTC 17 September 2019
Temperature: 18.0°C (64°F)
Dewpoint: 16.0°C (61°F) [RH = 88%]
Pressure (altimeter): 29.97 inches Hg (1015.0 mb)
Winds: from the WSW (240 degrees) at 3 MPH (3 knots; 1.5 m/s)
Visibility: 6 or more miles (10+ km)
Ceiling: ceiling and visibility are OK
Clouds: unknown
Weather: no significant weather observed at this time

Forecast for: LIPE (BOLOGNA/BORGO (A, IT)
Text: TAF LIPE 170500Z 1706/1806 VRB05KT CAVOK
Forecast period: 0600 UTC 17 September 2019 to 0600 UTC 18 September 2019
Forecast type: FROM: standard forecast or significant change
Winds: variable direction winds at 6 MPH (5 knots; 2.6 m/s)
Visibility: 6 or more miles 10+ km)
Ceiling: unknown
Clouds: missing
Weather: NSW  (no significant weather)

 MAPA DE AEROPUERTO

 INFORMACIÓN DE PISTA
Pista 12 Longitud 9186 ft Ancho 150 ft
Elevación 120 ft Umbral desplazado 1007 ft Rumbo de pista 117
Pista 30 Longitud 9186 ft Ancho 150 ft
Elevación 120 ft Umbral desplazado 1188 ft Rumbo de pista 297

 FRECUANCIAS DEL AEROPUERTO
Tipo APP Nombre APP Frecuencia 120.1 MHZ
Tipo ATIS Nombre ATIS Frecuencia 134.875 MHZ
Tipo GND Nombre GND Frecuencia 129.925 MHZ
Tipo TWR Nombre TWR Frecuencia 120.8 MHZ

 RADIO AYUDAS DEL AEROPUERTO
Tipo VOR-DME Nombre Bologna Frecuencia 112200 KHZ
Tipo NDB Nombre Bologna Frecuencia 413 KHZ



Powered by Virtual Airlines Manager [v2.6.2]